Time;durP1;ratioP1;P1;durP2;ratioP2;P2;SDS_P1;SDS_P2;PMS_P1;PMS_P2;Temp;Humidity;BMP_temperature;BMP_pressure;BME280_temperature;BME280_humidity;BME280_pressure;Samples;Min_cycle;Max_cycle;Signal;HPM_P1;HPM_P2
2022/09/28 00:00:13;;;;;;;;;;;16.90;61.30;;;;;;5092152;28;19927;-69
2022/09/28 00:02:39;;;;;;;;;;;16.90;61.30;;;;;;5092218;28;19927;-70
2022/09/28 00:05:05;;;;;;;;;;;16.90;61.40;;;;;;5074072;28;20346;-70
2022/09/28 00:07:30;;;;;;;;;;;16.90;61.30;;;;;;5076935;28;19927;-71
2022/09/28 00:09:56;;;;;;;;;;;16.90;61.30;;;;;;5077962;28;20014;-71
2022/09/28 00:12:21;;;;;;;;;;;16.90;61.30;;;;;;5096430;28;19920;-71
2022/09/28 00:14:47;;;;;;;;;;;16.90;61.30;;;;;;5077968;28;19920;-70
2022/09/28 00:17:12;;;;;;;;;;;16.90;61.30;;;;;;5077848;28;19920;-71
2022/09/28 00:19:39;;;;;;;;;;;16.90;61.30;;;;;;5078198;28;19973;-71
2022/09/28 00:22:05;;;;;;;;;;;16.90;61.30;;;;;;5094871;28;19926;-71
2022/09/28 00:24:30;;;;;;;;;;;16.80;61.30;;;;;;5094812;28;19920;-71
2022/09/28 00:26:57;;;;;;;;;;;16.80;61.30;;;;;;5095967;28;19930;-70
2022/09/28 00:29:26;;;;;;;;;;;16.80;61.70;;;;;;5078057;28;19965;-71
2022/09/28 00:31:56;;;;;;;;;;;16.80;61.30;;;;;;5095807;28;20264;-71
2022/09/28 00:34:21;;;;;;;;;;;16.80;61.30;;;;;;5095811;28;19927;-71
2022/09/28 00:36:47;;;;;;;;;;;16.80;61.30;;;;;;5094740;28;19921;-71
2022/09/28 00:39:14;;;;;;;;;;;16.80;61.30;;;;;;5077554;28;19928;-71
2022/09/28 00:41:39;;;;;;;;;;;16.80;61.30;;;;;;5077791;28;20014;-71
2022/09/28 00:44:25;;;;;;;;;;;16.80;61.30;;;;;;5077530;28;19967;-70
2022/09/28 00:46:53;;;;;;;;;;;16.80;61.30;;;;;;5093981;28;19924;-71
2022/09/28 00:49:21;;;;;;;;;;;16.80;61.30;;;;;;5076875;28;19920;-71
2022/09/28 00:51:47;;;;;;;;;;;16.80;61.30;;;;;;5077337;28;19966;-71
2022/09/28 00:54:14;;;;;;;;;;;16.80;61.30;;;;;;5095610;28;20011;-71
2022/09/28 00:56:41;;;;;;;;;;;16.80;61.30;;;;;;5077207;28;20535;-71
2022/09/28 00:59:07;;;;;;;;;;;16.80;61.30;;;;;;5095317;28;19968;-70
2022/09/28 01:01:33;;;;;;;;;;;16.80;61.30;;;;;;5077192;28;19920;-71
2022/09/28 01:04:00;;;;;;;;;;;16.80;61.30;;;;;;5077387;28;19931;-71
2022/09/28 01:06:27;;;;;;;;;;;16.70;61.20;;;;;;5095439;28;19926;-70
2022/09/28 01:08:55;;;;;;;;;;;16.80;61.40;;;;;;5095181;28;19924;-71
2022/09/28 01:11:21;;;;;;;;;;;16.80;61.30;;;;;;5095301;28;19965;-71
2022/09/28 01:13:48;;;;;;;;;;;16.70;61.30;;;;;;5077221;28;20283;-70
2022/09/28 01:21:58;;;;;;;;;;;16.70;61.20;;;;;;5110333;27;19918;-69
2022/09/28 01:24:37;;;;;;;;;;;16.80;61.30;;;;;;5108884;28;19920;-70
2022/09/28 01:27:09;;;;;;;;;;;16.70;61.20;;;;;;5108852;28;19924;-69
2022/09/28 01:29:44;;;;;;;;;;;16.70;61.20;;;;;;5143080;27;19927;-70
2022/09/28 01:32:14;;;;;;;;;;;16.70;61.20;;;;;;5109117;28;19942;-70
2022/09/28 01:34:44;;;;;;;;;;;16.70;61.20;;;;;;5110059;28;19977;-69
2022/09/28 01:37:12;;;;;;;;;;;16.70;61.30;;;;;;5108723;28;19920;-70
2022/09/28 01:39:40;;;;;;;;;;;16.70;61.20;;;;;;5108741;28;19966;-70
2022/09/28 01:42:10;;;;;;;;;;;16.70;61.20;;;;;;5110068;28;19920;-70
2022/09/28 01:44:40;;;;;;;;;;;16.70;61.30;;;;;;5108492;28;20015;-69
2022/09/28 01:47:09;;;;;;;;;;;16.70;61.20;;;;;;5108843;28;20443;-68
2022/09/28 01:49:38;;;;;;;;;;;16.60;61.10;;;;;;5108446;28;19927;-69
2022/09/28 01:52:24;;;;;;;;;;;16.70;61.20;;;;;;5108662;28;20356;-70
2022/09/28 01:54:53;;;;;;;;;;;16.70;61.20;;;;;;5142465;27;19920;-70
2022/09/28 02:00:04;;;;;;;;;;;16.70;61.20;;;;;;5089872;28;19912;-69
2022/09/28 02:02:32;;;;;;;;;;;16.70;61.20;;;;;;5088810;28;19920;-70
2022/09/28 02:05:00;;;;;;;;;;;16.60;61.20;;;;;;5088778;28;19920;-69
2022/09/28 02:07:37;;;;;;;;;;;16.60;61.20;;;;;;5088457;28;20375;-69
2022/09/28 02:10:05;;;;;;;;;;;16.60;61.10;;;;;;5088374;28;19928;-70
2022/09/28 02:12:35;;;;;;;;;;;16.70;61.20;;;;;;5088381;28;20371;-70
2022/09/28 02:15:09;;;;;;;;;;;16.60;61.10;;;;;;5088284;28;19966;-69
2022/09/28 02:17:35;;;;;;;;;;;16.60;61.10;;;;;;5088505;28;19927;-67
2022/09/28 02:20:00;;;;;;;;;;;16.60;61.10;;;;;;5088501;28;20368;-70
2022/09/28 02:22:28;;;;;;;;;;;16.60;61.10;;;;;;5089625;28;19974;-70
2022/09/28 02:24:58;;;;;;;;;;;16.60;61.10;;;;;;5088026;28;19927;-70
2022/09/28 02:27:30;;;;;;;;;;;16.60;61.10;;;;;;5088427;28;19974;-70
2022/09/28 02:29:56;;;;;;;;;;;16.60;61.10;;;;;;5089252;28;19975;-70
2022/09/28 02:32:22;;;;;;;;;;;16.60;61.10;;;;;;5089306;28;20419;-67
2022/09/28 02:34:47;;;;;;;;;;;16.60;61.10;;;;;;5089286;28;19926;-70
2022/09/28 02:37:13;;;;;;;;;;;16.60;61.10;;;;;;5088130;28;20022;-70
2022/09/28 02:39:38;;;;;;;;;;;16.60;61.20;;;;;;5087810;28;20326;-70
2022/09/28 02:50:14;;;;;;;;;;;16.60;61.10;;;;;;5089872;28;20295;-70
2022/09/28 02:53:00;;;;;;;;;;;16.60;61.90;;;;;;5088784;28;19971;-70
2022/09/28 02:55:32;;;;;;;;;;;16.60;61.10;;;;;;5088668;28;19920;-70
2022/09/28 02:58:06;;;;;;;;;;;16.60;61.10;;;;;;5088472;28;19920;-70
2022/09/28 03:00:35;;;;;;;;;;;16.60;61.10;;;;;;5088536;28;19920;-69
2022/09/28 03:03:20;;;;;;;;;;;16.60;61.10;;;;;;5088617;28;20273;-70
2022/09/28 03:05:52;;;;;;;;;;;16.60;61.10;;;;;;5088132;28;19925;-70
2022/09/28 03:08:28;;;;;;;;;;;16.60;61.10;;;;;;5088234;28;19977;-70
2022/09/28 03:10:57;;;;;;;;;;;16.60;61.10;;;;;;5105273;28;19938;-70
2022/09/28 03:13:23;;;;;;;;;;;16.60;61.10;;;;;;5088206;28;20003;-70
2022/09/28 03:15:49;;;;;;;;;;;16.60;61.10;;;;;;5088117;28;20342;-70
2022/09/28 03:18:15;;;;;;;;;;;16.60;61.10;;;;;;5088267;28;19946;-70
2022/09/28 03:20:41;;;;;;;;;;;16.60;61.10;;;;;;5089384;28;19943;-69
2022/09/28 03:23:06;;;;;;;;;;;16.60;61.00;;;;;;5088263;28;20360;-69
2022/09/28 03:25:32;;;;;;;;;;;16.50;60.90;;;;;;5087907;28;19927;-70
2022/09/28 03:27:57;;;;;;;;;;;16.50;60.90;;;;;;5089069;28;19924;-69
2022/09/28 03:30:23;;;;;;;;;;;16.50;60.90;;;;;;5089134;28;19928;-70
2022/09/28 03:32:55;;;;;;;;;;;16.50;60.90;;;;;;5089059;28;19920;-70
2022/09/28 03:35:21;;;;;;;;;;;16.50;61.60;;;;;;5088055;28;20070;-70
2022/09/28 03:37:46;;;;;;;;;;;16.50;61.30;;;;;;5088051;28;20411;-70
2022/09/28 03:40:12;;;;;;;;;;;16.50;60.90;;;;;;5089038;28;19967;-70
2022/09/28 03:42:37;;;;;;;;;;;16.50;60.90;;;;;;5088949;28;20015;-69
2022/09/28 03:45:03;;;;;;;;;;;16.50;60.90;;;;;;5088798;28;19920;-70
2022/09/28 03:47:28;;;;;;;;;;;16.50;60.90;;;;;;5087408;28;19921;-70
2022/09/28 03:49:54;;;;;;;;;;;16.50;60.90;;;;;;5087147;28;19928;-70
2022/09/28 03:52:19;;;;;;;;;;;16.50;60.90;;;;;;5087422;28;19959;-69
2022/09/28 03:54:45;;;;;;;;;;;16.50;60.90;;;;;;5088774;28;19970;-70
2022/09/28 03:57:10;;;;;;;;;;;16.50;60.90;;;;;;5087249;28;20330;-70
2022/09/28 03:59:36;;;;;;;;;;;16.50;60.90;;;;;;5085435;28;19955;-70
2022/09/28 04:02:02;;;;;;;;;;;16.50;60.90;;;;;;5075096;28;20380;-70
2022/09/28 04:04:28;;;;;;;;;;;16.50;60.90;;;;;;5074812;28;19960;-70
2022/09/28 04:06:53;;;;;;;;;;;16.50;60.90;;;;;;5073645;28;19967;-70
2022/09/28 04:09:19;;;;;;;;;;;16.50;60.90;;;;;;5073529;28;19964;-68
2022/09/28 04:11:45;;;;;;;;;;;16.50;60.90;;;;;;5073598;28;19970;-69
2022/09/28 04:14:11;;;;;;;;;;;16.50;60.90;;;;;;5073855;28;19974;-70
2022/09/28 04:16:36;;;;;;;;;;;16.50;60.90;;;;;;5074733;28;20292;-70
2022/09/28 04:19:02;;;;;;;;;;;16.50;60.80;;;;;;5073361;28;19928;-69
2022/09/28 04:21:28;;;;;;;;;;;16.50;61.60;;;;;;5074796;28;19920;-69
2022/09/28 04:23:54;;;;;;;;;;;16.50;60.80;;;;;;5073565;28;19924;-70
2022/09/28 04:26:21;;;;;;;;;;;16.50;60.80;;;;;;5073758;28;19933;-70
2022/09/28 04:29:18;;;;;;;;;;;16.50;60.90;;;;;;5074449;28;19931;-70
2022/09/28 04:31:49;;;;;;;;;;;16.50;60.90;;;;;;5074317;28;19921;-70
2022/09/28 04:34:16;;;;;;;;;;;16.50;60.80;;;;;;5074588;28;20318;-70
2022/09/28 04:36:43;;;;;;;;;;;16.50;60.80;;;;;;5073499;28;20381;-70
2022/09/28 04:39:09;;;;;;;;;;;16.50;60.80;;;;;;5074264;28;19921;-70
2022/09/28 04:41:35;;;;;;;;;;;16.50;60.80;;;;;;5073074;28;19927;-70
2022/09/28 04:44:00;;;;;;;;;;;16.50;60.80;;;;;;5072995;28;20006;-70
2022/09/28 04:46:26;;;;;;;;;;;16.50;60.70;;;;;;5074180;28;19940;-69
2022/09/28 04:48:51;;;;;;;;;;;16.50;60.80;;;;;;5073964;28;19939;-69
2022/09/28 04:51:17;;;;;;;;;;;16.50;60.70;;;;;;5072825;28;19935;-70
2022/09/28 04:53:42;;;;;;;;;;;16.50;60.70;;;;;;5072890;28;20007;-70
2022/09/28 04:56:10;;;;;;;;;;;16.50;60.60;;;;;;5072718;28;19927;-70
2022/09/28 04:58:36;;;;;;;;;;;16.50;60.70;;;;;;5072774;28;20000;-70
2022/09/28 05:01:04;;;;;;;;;;;16.50;60.60;;;;;;5073803;28;19920;-70
2022/09/28 05:03:30;;;;;;;;;;;16.50;60.60;;;;;;5072678;28;19921;-69
2022/09/28 05:05:55;;;;;;;;;;;16.50;60.50;;;;;;5072507;28;20011;-70
2022/09/28 05:08:21;;;;;;;;;;;16.50;60.50;;;;;;5073901;28;19932;-69
2022/09/28 05:10:46;;;;;;;;;;;16.50;60.50;;;;;;5072467;28;19928;-71
2022/09/28 05:13:12;;;;;;;;;;;16.50;60.50;;;;;;5072957;28;19927;-71
2022/09/28 05:15:40;;;;;;;;;;;16.50;60.50;;;;;;5073417;28;19921;-71
2022/09/28 05:18:05;;;;;;;;;;;16.50;60.50;;;;;;5072330;28;19925;-71
2022/09/28 05:20:31;;;;;;;;;;;16.50;60.50;;;;;;5072590;28;19920;-74
2022/09/28 05:22:57;;;;;;;;;;;16.60;60.80;;;;;;5069223;28;19927;-73
2022/09/28 05:25:23;;;;;;;;;;;16.50;60.90;;;;;;5071546;28;19920;-73
2022/09/28 05:27:54;;;;;;;;;;;16.60;60.80;;;;;;5072126;28;19920;-73
2022/09/28 05:30:20;;;;;;;;;;;16.60;60.80;;;;;;5069903;28;19924;-74
2022/09/28 05:32:46;;;;;;;;;;;16.60;61.00;;;;;;5071151;28;20396;-74
2022/09/28 05:35:11;;;;;;;;;;;16.70;61.30;;;;;;5070435;28;19965;-75
2022/09/28 05:37:37;;;;;;;;;;;16.90;61.60;;;;;;5070154;28;19920;-73
2022/09/28 05:40:04;;;;;;;;;;;16.90;61.50;;;;;;5071393;28;19921;-73
2022/09/28 05:42:29;;;;;;;;;;;17.00;61.60;;;;;;5069176;28;20368;-73
2022/09/28 05:44:57;;;;;;;;;;;17.00;61.30;;;;;;5069424;28;20031;-74
2022/09/28 05:47:22;;;;;;;;;;;17.00;61.20;;;;;;5066062;28;19920;-73
2022/09/28 05:49:48;;;;;;;;;;;17.10;61.00;;;;;;5070246;28;19931;-71
2022/09/28 05:52:13;;;;;;;;;;;17.10;60.80;;;;;;5060003;28;19971;-70
2022/09/28 05:54:39;;;;;;;;;;;17.20;60.70;;;;;;5051758;28;19925;-70
2022/09/28 05:57:06;;;;;;;;;;;17.30;60.60;;;;;;5048239;28;19920;-71
2022/09/28 05:59:33;;;;;;;;;;;17.30;60.40;;;;;;5052559;28;19921;-70
2022/09/28 06:01:59;;;;;;;;;;;17.40;60.30;;;;;;5051719;28;19921;-69
2022/09/28 06:04:25;;;;;;;;;;;17.40;60.20;;;;;;5051758;28;19928;-70
2022/09/28 06:06:51;;;;;;;;;;;17.40;60.10;;;;;;5034374;28;19932;-70
2022/09/28 06:09:16;;;;;;;;;;;17.40;60.10;;;;;;5049683;28;19986;-70
2022/09/28 06:11:42;;;;;;;;;;;17.40;60.10;;;;;;5053004;28;19921;-70
2022/09/28 06:14:07;;;;;;;;;;;17.40;60.10;;;;;;5053159;28;19920;-69
2022/09/28 06:16:33;;;;;;;;;;;17.30;60.20;;;;;;5046957;28;19924;-70
2022/09/28 06:19:00;;;;;;;;;;;17.30;60.30;;;;;;5041305;28;19947;-69
2022/09/28 06:21:25;;;;;;;;;;;17.30;60.30;;;;;;5051796;28;19924;-69
2022/09/28 06:23:51;;;;;;;;;;;17.30;60.50;;;;;;5048941;28;20344;-68
2022/09/28 06:26:17;;;;;;;;;;;17.40;60.60;;;;;;5051007;28;19928;-69
2022/09/28 06:28:42;;;;;;;;;;;17.30;60.50;;;;;;5052801;28;19968;-70
2022/09/28 06:31:08;;;;;;;;;;;17.40;60.60;;;;;;5054100;28;20064;-68
2022/09/28 06:33:34;;;;;;;;;;;17.50;60.50;;;;;;5054533;28;19920;-68
2022/09/28 06:36:00;;;;;;;;;;;17.50;60.50;;;;;;5054000;28;19943;-68
2022/09/28 06:38:25;;;;;;;;;;;17.50;60.50;;;;;;5051692;28;19924;-72
2022/09/28 06:40:51;;;;;;;;;;;17.50;60.40;;;;;;5049971;28;19921;-72
2022/09/28 06:43:17;;;;;;;;;;;17.60;60.40;;;;;;5051416;28;19920;-72
2022/09/28 06:45:49;;;;;;;;;;;17.70;60.30;;;;;;5054906;28;19936;-71
2022/09/28 06:48:15;;;;;;;;;;;17.70;60.20;;;;;;5049585;28;19928;-71
2022/09/28 06:50:41;;;;;;;;;;;17.80;60.20;;;;;;5051333;28;19970;-74
2022/09/28 06:53:09;;;;;;;;;;;17.90;60.30;;;;;;5052446;28;19931;-71
2022/09/28 06:55:37;;;;;;;;;;;17.90;60.10;;;;;;5067752;28;19974;-72
2022/09/28 06:58:04;;;;;;;;;;;18.00;60.20;;;;;;5050591;28;20330;-74
2022/09/28 07:00:32;;;;;;;;;;;18.00;60.10;;;;;;5056391;28;19924;-77
2022/09/28 07:03:00;;;;;;;;;;;18.00;60.20;;;;;;5055774;28;19925;-73
2022/09/28 07:05:26;;;;;;;;;;;18.10;60.10;;;;;;5053086;28;19921;-73
2022/09/28 07:07:54;;;;;;;;;;;18.10;60.10;;;;;;5052438;28;19950;-70
2022/09/28 07:10:22;;;;;;;;;;;18.10;60.10;;;;;;5037715;28;19924;-72
2022/09/28 07:12:49;;;;;;;;;;;18.10;60.20;;;;;;5052858;28;19930;-72
2022/09/28 07:15:15;;;;;;;;;;;18.00;60.30;;;;;;5069459;28;19959;-72
2022/09/28 07:17:40;;;;;;;;;;;18.00;60.30;;;;;;5048272;28;19960;-72
2022/09/28 07:20:06;;;;;;;;;;;18.00;60.40;;;;;;5046186;28;19939;-69
2022/09/28 07:22:33;;;;;;;;;;;18.00;60.50;;;;;;5051109;28;19960;-69
2022/09/28 07:24:59;;;;;;;;;;;18.00;60.40;;;;;;5051749;28;19921;-68
2022/09/28 07:27:25;;;;;;;;;;;18.00;60.50;;;;;;5053157;28;19966;-69
2022/09/28 07:29:52;;;;;;;;;;;18.00;60.40;;;;;;5052784;28;19978;-68
2022/09/28 07:32:19;;;;;;;;;;;18.10;60.50;;;;;;5054724;28;19955;-70
2022/09/28 07:34:44;;;;;;;;;;;18.10;60.50;;;;;;5052110;28;19927;-69
2022/09/28 07:37:12;;;;;;;;;;;18.10;60.50;;;;;;5055703;28;19929;-69
2022/09/28 07:42:23;;;;;;;;;;;18.10;60.50;;;;;;5058975;28;19952;-69
2022/09/28 07:44:50;;;;;;;;;;;18.10;60.30;;;;;;5055090;28;19924;-68
2022/09/28 07:47:16;;;;;;;;;;;18.10;60.50;;;;;;5055724;28;20443;-70
2022/09/28 07:49:41;;;;;;;;;;;18.10;60.40;;;;;;5071347;28;20023;-72
2022/09/28 07:52:07;;;;;;;;;;;18.20;60.60;;;;;;5061667;28;19925;-70
2022/09/28 07:54:33;;;;;;;;;;;18.10;60.70;;;;;;5056827;28;19933;-68
2022/09/28 07:56:59;;;;;;;;;;;18.20;60.90;;;;;;5057142;28;20000;-68
2022/09/28 07:59:24;;;;;;;;;;;18.10;60.90;;;;;;5055772;28;19921;-70
2022/09/28 08:01:50;;;;;;;;;;;18.10;61.00;;;;;;5050819;28;20618;-67
2022/09/28 08:04:16;;;;;;;;;;;18.00;60.90;;;;;;5056947;28;20035;-70
2022/09/28 08:06:43;;;;;;;;;;;18.10;61.00;;;;;;5054676;28;19990;-68
2022/09/28 08:09:09;;;;;;;;;;;18.10;61.10;;;;;;5052290;28;19928;-68
2022/09/28 08:11:35;;;;;;;;;;;18.10;60.90;;;;;;5058275;28;20400;-68
2022/09/28 08:14:01;;;;;;;;;;;18.10;60.70;;;;;;5069558;28;19921;-68
2022/09/28 08:16:26;;;;;;;;;;;18.20;60.80;;;;;;5059168;28;20016;-68
2022/09/28 08:18:53;;;;;;;;;;;18.20;60.70;;;;;;5053712;28;20365;-68
2022/09/28 08:21:50;;;;;;;;;;;18.20;60.70;;;;;;5062411;28;19943;-68
2022/09/28 08:24:04;;;;;;;;;;;18.30;60.70;;;;;;5075123;28;19933;-69
2022/09/28 08:26:30;;;;;;;;;;;18.30;60.70;;;;;;5055623;28;20583;-71
2022/09/28 08:28:56;;;;;;;;;;;18.30;60.80;;;;;;5055598;28;19932;-71
2022/09/28 08:31:21;;;;;;;;;;;18.30;60.80;;;;;;5055356;28;20272;-70
2022/09/28 08:33:51;;;;;;;;;;;18.30;60.80;;;;;;5058547;28;20019;-69
2022/09/28 08:36:17;;;;;;;;;;;18.20;60.80;;;;;;5072268;28;19928;-68
2022/09/28 08:38:42;;;;;;;;;;;18.20;60.80;;;;;;5051374;28;19928;-67
2022/09/28 08:46:34;;;;;;;;;;;18.10;60.90;;;;;;5080241;27;19916;-67
2022/09/28 08:49:18;;;;;;;;;;;18.00;60.80;;;;;;5095279;28;20739;-68
2022/09/28 08:51:50;;;;;;;;;;;18.00;60.90;;;;;;5076344;28;20294;-67
2022/09/28 08:57:13;;;;;;;;;;;18.00;60.90;;;;;;5080966;27;19924;-66
2022/09/28 08:59:44;;;;;;;;;;;17.90;60.80;;;;;;5071321;28;20712;-63
2022/09/28 09:02:14;;;;;;;;;;;18.00;60.90;;;;;;5100860;28;19928;-68
2022/09/28 09:04:40;;;;;;;;;;;18.00;61.40;;;;;;5066190;28;20019;-67
2022/09/28 09:07:17;;;;;;;;;;;18.10;61.70;;;;;;5070416;28;20081;-68
2022/09/28 09:09:51;;;;;;;;;;;18.20;61.80;;;;;;5069054;28;19929;-66
2022/09/28 09:12:25;;;;;;;;;;;18.30;61.70;;;;;;5100865;28;20695;-66
2022/09/28 09:15:03;;;;;;;;;;;18.40;61.30;;;;;;5096969;28;19928;-66
2022/09/28 09:17:49;;;;;;;;;;;18.40;61.50;;;;;;5071181;28;20296;-71
2022/09/28 09:25:53;;;;;;;;;;;18.50;62.00;;;;;;5080028;27;19924;-68
2022/09/28 09:37:06;;;;;;;;;;;18.60;61.40;;;;;;5055426;28;19916;-67
2022/09/28 09:42:29;;;;;;;;;;;18.70;61.30;;;;;;5068053;28;20636;-67
2022/09/28 09:47:41;;;;;;;;;;;18.80;61.20;;;;;;5094941;27;19931;-71
2022/09/28 09:50:11;;;;;;;;;;;18.80;61.40;;;;;;5075703;28;19974;-69
2022/09/28 09:55:23;;;;;;;;;;;18.80;61.10;;;;;;5065611;28;19921;-68
2022/09/28 09:57:52;;;;;;;;;;;18.90;61.10;;;;;;5052507;28;19945;-68
2022/09/28 10:00:18;;;;;;;;;;;18.90;61.00;;;;;;5054161;28;20369;-67
2022/09/28 10:02:44;;;;;;;;;;;18.90;61.10;;;;;;5048542;28;19932;-69
2022/09/28 10:10:36;;;;;;;;;;;18.90;60.90;;;;;;5092454;27;19921;-67
2022/09/28 10:13:02;;;;;;;;;;;18.80;60.70;;;;;;5096212;28;20457;-67
2022/09/28 10:15:29;;;;;;;;;;;18.90;60.70;;;;;;5091344;28;19967;-68
2022/09/28 10:17:57;;;;;;;;;;;18.90;60.60;;;;;;5088532;28;19924;-65
2022/09/28 10:20:24;;;;;;;;;;;18.90;60.40;;;;;;5091707;28;19978;-69
2022/09/28 10:22:50;;;;;;;;;;;18.90;60.50;;;;;;5089616;28;19920;-66
2022/09/28 10:25:17;;;;;;;;;;;18.90;60.20;;;;;;5091133;28;19924;-66
2022/09/28 10:27:44;;;;;;;;;;;18.90;60.20;;;;;;5082282;28;19974;-64
2022/09/28 10:32:52;;;;;;;;;;;19.00;60.10;;;;;;5095545;27;19931;-66
2022/09/28 10:38:03;;;;;;;;;;;19.00;60.10;;;;;;5081135;27;20562;-62
2022/09/28 10:40:38;;;;;;;;;;;19.10;60.10;;;;;;5052017;28;19947;-63
2022/09/28 10:43:05;;;;;;;;;;;19.10;59.90;;;;;;5064048;28;20565;-62
2022/09/28 10:45:33;;;;;;;;;;;19.10;59.80;;;;;;5068636;28;19928;-63
2022/09/28 10:48:00;;;;;;;;;;;19.20;59.70;;;;;;5066050;28;20567;-63
2022/09/28 10:50:26;;;;;;;;;;;19.10;59.60;;;;;;5064849;28;20008;-65
2022/09/28 10:52:52;;;;;;;;;;;19.10;59.60;;;;;;5069000;28;19924;-64
2022/09/28 10:55:35;;;;;;;;;;;19.20;59.90;;;;;;5052274;28;19931;-66
2022/09/28 10:58:21;;;;;;;;;;;19.10;59.30;;;;;;5067591;28;19929;-65
2022/09/28 11:00:48;;;;;;;;;;;19.20;59.40;;;;;;5062813;28;19932;-65
2022/09/28 11:03:17;;;;;;;;;;;19.20;58.90;;;;;;5053750;28;19974;-65
2022/09/28 11:05:51;;;;;;;;;;;19.20;59.40;;;;;;5071187;28;19921;-66
2022/09/28 11:08:22;;;;;;;;;;;19.20;58.90;;;;;;5070987;28;20745;-66
2022/09/28 11:10:59;;;;;;;;;;;19.10;58.40;;;;;;5052032;28;19920;-66
2022/09/28 11:13:26;;;;;;;;;;;19.10;58.70;;;;;;5071484;28;20288;-65
2022/09/28 11:15:52;;;;;;;;;;;19.20;58.80;;;;;;5073958;28;19932;-68
2022/09/28 11:18:24;;;;;;;;;;;19.10;58.90;;;;;;5066403;28;19947;-68
2022/09/28 11:20:49;;;;;;;;;;;19.10;59.10;;;;;;5067136;28;19924;-65
2022/09/28 11:23:19;;;;;;;;;;;19.10;59.20;;;;;;5049492;28;20585;-67
2022/09/28 11:26:04;;;;;;;;;;;19.20;59.50;;;;;;5073531;28;19950;-70
2022/09/28 11:28:32;;;;;;;;;;;19.20;59.20;;;;;;5049424;28;19927;-68
2022/09/28 11:30:58;;;;;;;;;;;19.30;58.90;;;;;;5072325;28;20018;-68
2022/09/28 11:33:29;;;;;;;;;;;19.40;58.80;;;;;;5069165;28;19963;-70
2022/09/28 11:38:56;;;;;;;;;;;19.30;58.50;;;;;;5075777;28;19965;-66
2022/09/28 11:41:24;;;;;;;;;;;19.40;58.50;;;;;;5069676;28;20532;-66
2022/09/28 11:44:10;;;;;;;;;;;19.40;58.40;;;;;;5070033;28;20335;-66
2022/09/28 11:52:02;;;;;;;;;;;19.40;57.80;;;;;;5096302;27;19919;-65
2022/09/28 11:54:46;;;;;;;;;;;19.40;57.80;;;;;;5092246;28;19920;-66
2022/09/28 11:57:14;;;;;;;;;;;19.40;57.60;;;;;;5119087;27;19932;-67
2022/09/28 11:59:47;;;;;;;;;;;19.40;57.60;;;;;;5086608;28;19921;-65
2022/09/28 12:02:18;;;;;;;;;;;19.40;57.70;;;;;;5075585;28;19924;-69
2022/09/28 12:04:51;;;;;;;;;;;19.40;57.30;;;;;;5081159;28;20006;-65
2022/09/28 12:07:22;;;;;;;;;;;19.40;57.70;;;;;;5091967;28;19921;-65
2022/09/28 12:09:50;;;;;;;;;;;19.40;57.60;;;;;;5088060;28;20718;-66
2022/09/28 12:12:20;;;;;;;;;;;19.50;58.00;;;;;;5085245;28;19927;-65
2022/09/28 12:14:46;;;;;;;;;;;19.40;57.80;;;;;;5095251;28;19927;-66
2022/09/28 12:17:31;;;;;;;;;;;19.50;57.90;;;;;;5095839;28;19920;-68
2022/09/28 12:20:00;;;;;;;;;;;19.40;58.10;;;;;;5094510;28;19920;-65
2022/09/28 12:22:31;;;;;;;;;;;19.40;58.00;;;;;;5093336;28;19921;-65
2022/09/28 12:24:56;;;;;;;;;;;19.40;57.70;;;;;;5094711;28;19920;-65
2022/09/28 12:27:42;;;;;;;;;;;19.40;57.90;;;;;;5093113;28;19961;-68
2022/09/28 12:30:13;;;;;;;;;;;19.40;57.90;;;;;;5121582;27;19928;-65
2022/09/28 12:32:48;;;;;;;;;;;19.40;57.80;;;;;;5125014;27;20003;-69
2022/09/28 12:35:18;;;;;;;;;;;19.40;57.90;;;;;;5079717;28;21344;-67
2022/09/28 12:40:44;;;;;;;;;;;19.40;57.80;;;;;;5086208;27;20412;-65
2022/09/28 12:51:27;;;;;;;;;;;19.20;57.70;;;;;;5087316;28;20368;-65
2022/09/28 12:56:45;;;;;;;;;;;19.10;57.90;;;;;;5087835;28;19916;-65
2022/09/28 12:59:20;;;;;;;;;;;19.10;57.90;;;;;;5086657;28;19958;-65
2022/09/28 13:02:06;;;;;;;;;;;19.10;58.10;;;;;;5086434;28;20491;-66
2022/09/28 13:04:52;;;;;;;;;;;19.00;58.10;;;;;;5072979;28;19920;-66
2022/09/28 13:10:15;;;;;;;;;;;18.90;58.20;;;;;;5088449;28;20479;-65
2022/09/28 13:12:48;;;;;;;;;;;18.90;58.20;;;;;;5087722;28;20469;-66
2022/09/28 13:15:22;;;;;;;;;;;18.90;58.30;;;;;;5087712;28;19920;-65
2022/09/28 13:23:15;;;;;;;;;;;18.80;58.40;;;;;;5087373;28;19920;-66
2022/09/28 13:25:43;;;;;;;;;;;18.70;58.40;;;;;;5073016;28;20015;-66
2022/09/28 13:28:10;;;;;;;;;;;18.70;58.50;;;;;;5088142;28;20318;-66
2022/09/28 13:30:37;;;;;;;;;;;18.70;58.50;;;;;;5094732;28;19932;-66
2022/09/28 13:33:04;;;;;;;;;;;18.60;58.50;;;;;;5073329;28;19920;-67
2022/09/28 13:35:30;;;;;;;;;;;18.70;58.60;;;;;;5068029;28;19920;-66
2022/09/28 13:38:17;;;;;;;;;;;18.60;58.60;;;;;;5067946;28;19931;-66
2022/09/28 13:41:02;;;;;;;;;;;18.60;58.70;;;;;;5086690;28;19952;-66
2022/09/28 13:43:34;;;;;;;;;;;18.60;58.70;;;;;;5088112;28;19979;-66
2022/09/28 13:46:05;;;;;;;;;;;18.60;58.80;;;;;;5086607;28;19920;-66
2022/09/28 13:48:38;;;;;;;;;;;18.50;58.80;;;;;;5087550;28;20392;-67
2022/09/28 13:57:08;;;;;;;;;;;18.60;58.80;;;;;;5089737;28;19912;-65
2022/09/28 13:59:43;;;;;;;;;;;18.50;58.80;;;;;;5087966;28;20404;-65
2022/09/28 14:04:59;;;;;;;;;;;18.60;58.70;;;;;;5088217;28;19913;-65
2022/09/28 14:07:45;;;;;;;;;;;18.50;58.60;;;;;;5088370;28;19920;-65
2022/09/28 14:10:30;;;;;;;;;;;18.60;58.70;;;;;;5087750;28;19920;-65
2022/09/28 14:12:56;;;;;;;;;;;18.60;58.70;;;;;;5087865;28;19921;-65
2022/09/28 14:21:01;;;;;;;;;;;18.60;58.50;;;;;;5107898;27;19912;-65
2022/09/28 14:23:36;;;;;;;;;;;18.60;58.50;;;;;;5096238;28;20011;-65
2022/09/28 14:26:13;;;;;;;;;;;18.60;58.60;;;;;;5091371;28;19920;-65
2022/09/28 14:28:44;;;;;;;;;;;18.60;58.60;;;;;;5094414;28;19939;-65
2022/09/28 14:31:16;;;;;;;;;;;18.60;58.60;;;;;;5098705;28;19971;-65
2022/09/28 14:33:53;;;;;;;;;;;18.60;58.60;;;;;;5094838;28;19928;-65
2022/09/28 14:41:08;;;;;;;;;;;18.50;58.60;;;;;;5090759;28;19920;-66
2022/09/28 14:42:16;;;;;;;;;;;18.60;58.70;;;;;;5088037;28;19920;-66
2022/09/28 14:45:01;;;;;;;;;;;18.50;58.70;;;;;;5086171;28;19920;-66
2022/09/28 14:47:35;;;;;;;;;;;18.50;58.70;;;;;;5087217;28;19982;-65
2022/09/28 14:50:16;;;;;;;;;;;18.50;58.80;;;;;;5087919;28;19921;-65
2022/09/28 14:52:45;;;;;;;;;;;18.50;58.80;;;;;;5088892;28;19921;-65
2022/09/28 14:55:12;;;;;;;;;;;18.50;58.80;;;;;;5087735;28;20007;-65
2022/09/28 14:57:39;;;;;;;;;;;18.50;58.90;;;;;;5087983;28;19924;-66
2022/09/28 15:00:07;;;;;;;;;;;18.50;58.90;;;;;;5087169;28;19928;-65
2022/09/28 15:02:34;;;;;;;;;;;18.50;59.00;;;;;;5086941;28;19924;-65
2022/09/28 15:05:08;;;;;;;;;;;18.50;59.00;;;;;;5087368;28;20455;-65
2022/09/28 15:07:50;;;;;;;;;;;18.50;59.00;;;;;;5087557;28;20340;-65
2022/09/28 15:10:24;;;;;;;;;;;18.50;59.00;;;;;;5087074;28;19924;-65
2022/09/28 15:12:52;;;;;;;;;;;18.40;59.00;;;;;;5088720;28;20283;-65
2022/09/28 15:15:24;;;;;;;;;;;18.40;59.00;;;;;;5087484;28;19920;-66
2022/09/28 15:17:52;;;;;;;;;;;18.40;59.10;;;;;;5087656;28;19920;-65
2022/09/28 15:22:59;;;;;;;;;;;18.40;59.10;;;;;;5109409;27;20383;-65
2022/09/28 15:25:27;;;;;;;;;;;18.40;59.10;;;;;;5107485;28;19926;-65
2022/09/28 15:27:54;;;;;;;;;;;18.30;59.10;;;;;;5108766;28;19926;-65
2022/09/28 15:30:22;;;;;;;;;;;18.40;59.20;;;;;;5108612;28;19943;-65
2022/09/28 15:32:49;;;;;;;;;;;18.40;59.90;;;;;;5108735;28;19920;-65
2022/09/28 15:35:19;;;;;;;;;;;18.40;59.30;;;;;;5108957;28;19942;-66
2022/09/28 15:37:48;;;;;;;;;;;18.30;59.20;;;;;;5108435;28;19924;-65
2022/09/28 15:40:15;;;;;;;;;;;18.40;59.30;;;;;;5108458;28;19920;-65
2022/09/28 15:42:42;;;;;;;;;;;18.30;59.30;;;;;;5108916;28;19928;-65
2022/09/28 15:45:25;;;;;;;;;;;18.30;59.20;;;;;;5108460;28;19920;-65
2022/09/28 15:47:54;;;;;;;;;;;18.30;59.20;;;;;;5109213;28;19924;-65
2022/09/28 15:50:22;;;;;;;;;;;18.30;59.30;;;;;;5142728;27;19920;-65
2022/09/28 15:52:52;;;;;;;;;;;18.30;59.30;;;;;;5108253;28;19920;-65
2022/09/28 15:55:21;;;;;;;;;;;18.30;59.30;;;;;;5109597;28;19920;-65
2022/09/28 15:57:47;;;;;;;;;;;18.30;59.30;;;;;;5109359;28;19920;-65
2022/09/28 16:03:02;;;;;;;;;;;18.30;59.20;;;;;;5128361;27;1875277;-65
2022/09/28 16:05:34;;;;;;;;;;;18.30;59.20;;;;;;5173105;27;19919;-65
2022/09/28 16:08:01;;;;;;;;;;;18.30;59.30;;;;;;5173754;27;19922;-65
2022/09/28 16:10:29;;;;;;;;;;;18.30;59.20;;;;;;5171451;27;20006;-65
2022/09/28 16:12:57;;;;;;;;;;;18.30;59.20;;;;;;5168709;27;20491;-63
2022/09/28 16:18:16;;;;;;;;;;;18.30;59.90;;;;;;5109460;27;20322;-68
2022/09/28 16:20:43;;;;;;;;;;;18.40;59.90;;;;;;5108511;28;20012;-68
2022/09/28 16:25:59;;;;;;;;;;;18.60;60.00;;;;;;5087881;28;19912;-66